Time;durP1;ratioP1;P1;durP2;ratioP2;P2;SDS_P1;SDS_P2;PMS_P1;PMS_P2;Temp;Humidity;BMP_temperature;BMP_pressure;BME280_temperature;BME280_humidity;BME280_pressure;Samples;Min_cycle;Max_cycle;Signal;HPM_P1;HPM_P2
2023/03/07 00:01:46;;;;;;;53.65;25.30;;;;;;;1.34;100.00;99127.97;5053305;28;20084;-80
2023/03/07 00:04:13;;;;;;;42.70;24.02;;;;;;;1.27;100.00;99129.03;5053231;28;20021;-79
2023/03/07 00:06:39;;;;;;;48.22;25.13;;;;;;;1.27;100.00;99139.47;5052325;28;20120;-78
2023/03/07 00:09:06;;;;;;;48.42;24.73;;;;;;;1.26;100.00;99133.06;5053030;28;20044;-80
2023/03/07 00:11:34;;;;;;;56.65;27.58;;;;;;;1.28;100.00;99127.78;5053147;28;20021;-78
2023/03/07 00:14:03;;;;;;;49.90;25.23;;;;;;;1.33;100.00;99135.63;5053277;28;20033;-80
2023/03/07 00:16:29;;;;;;;54.13;26.42;;;;;;;1.32;100.00;99139.69;5051915;28;20029;-79
2023/03/07 00:18:55;;;;;;;56.55;28.65;;;;;;;1.35;100.00;99130.34;5053347;28;20033;-80
2023/03/07 00:21:22;;;;;;;60.03;28.23;;;;;;;1.39;100.00;99127.38;5052234;28;20084;-79
2023/03/07 00:23:48;;;;;;;55.78;27.65;;;;;;;1.34;100.00;99127.97;5052121;28;20454;-79
2023/03/07 00:26:21;;;;;;;56.45;28.38;;;;;;;1.35;100.00;99132.38;5033972;28;20124;-79
2023/03/07 00:28:48;;;;;;;64.57;29.75;;;;;;;1.26;100.00;99115.41;5050231;28;20032;-80
2023/03/07 00:31:19;;;;;;;56.25;28.00;;;;;;;1.29;100.00;99128.56;5051660;28;20105;-78
2023/03/07 00:33:45;;;;;;;56.88;26.42;;;;;;;1.32;100.00;99127.63;5019023;28;20049;-80
2023/03/07 00:36:14;;;;;;;65.40;29.20;;;;;;;1.22;100.00;99111.94;5051664;28;20078;-80
2023/03/07 00:38:45;;;;;;;54.05;27.40;;;;;;;1.34;100.00;99125.16;5050321;28;20393;-81
2023/03/07 00:41:18;;;;;;;55.00;28.48;;;;;;;1.37;100.00;99121.44;5051427;28;20406;-79
2023/03/07 00:44:02;;;;;;;51.53;26.92;;;;;;;1.36;100.00;99115.00;5051761;28;20036;-80
2023/03/07 00:46:27;;;;;;;53.92;27.33;;;;;;;1.37;100.00;99124.25;5051945;28;20033;-79
2023/03/07 00:48:53;;;;;;;49.28;25.30;;;;;;;1.34;100.00;99122.34;5051529;28;20129;-80
2023/03/07 00:51:24;;;;;;;55.90;26.60;;;;;;;1.32;100.00;99117.19;5050513;28;20111;-79
2023/03/07 00:53:53;;;;;;;58.28;26.77;;;;;;;1.20;100.00;99095.53;5050117;28;20032;-79
2023/03/07 00:56:22;;;;;;;58.08;28.70;;;;;;;1.26;100.00;99113.38;5051536;28;20079;-81
2023/03/07 00:58:49;;;;;;;56.05;29.65;;;;;;;1.20;100.00;99109.59;5034358;28;20025;-76
2023/03/07 01:01:22;;;;;;;59.72;29.42;;;;;;;1.20;100.00;99101.16;5018125;28;20387;-76
2023/03/07 01:03:51;;;;;;;60.22;28.85;;;;;;;1.20;100.00;99103.19;5035092;28;20454;-76
2023/03/07 01:06:19;;;;;;;55.45;27.05;;;;;;;1.12;100.00;99087.81;5052617;28;20462;-75
2023/03/07 01:08:46;;;;;;;60.75;29.73;;;;;;;1.20;100.00;99095.53;5051241;28;20028;-75
2023/03/07 01:11:13;;;;;;;56.17;27.10;;;;;;;1.17;100.00;99095.66;5051138;28;20410;-75
2023/03/07 01:13:41;;;;;;;60.83;27.13;;;;;;;1.12;100.00;99085.78;5052340;28;20163;-75
2023/03/07 01:16:17;;;;;;;59.75;27.30;;;;;;;1.08;100.00;99084.34;5051547;28;20094;-76
2023/03/07 01:18:43;;;;;;;57.58;28.75;;;;;;;0.99;100.00;99076.63;5052356;28;20510;-77
2023/03/07 01:21:14;;;;;;;58.78;27.45;;;;;;;1.01;100.00;99071.31;5051069;28;20051;-77
2023/03/07 01:23:41;;;;;;;65.13;29.60;;;;;;;1.07;100.00;99072.31;5051025;28;20063;-75
2023/03/07 01:26:11;;;;;;;59.88;29.23;;;;;;;0.95;100.00;99056.28;5034502;28;20075;-75
2023/03/07 01:28:37;;;;;;;64.13;30.70;;;;;;;1.02;100.00;99070.88;5051063;28;20029;-75
2023/03/07 01:31:03;;;;;;;64.25;29.30;;;;;;;1.02;100.00;99058.81;5052132;28;20431;-75
2023/03/07 01:33:29;;;;;;;62.33;29.77;;;;;;;0.94;100.00;99049.88;5052164;28;20033;-75
2023/03/07 01:35:56;;;;;;;68.50;31.55;;;;;;;0.97;100.00;99053.78;5051067;28;20041;-76
2023/03/07 01:38:23;;;;;;;72.50;33.72;;;;;;;0.88;100.00;99050.94;5051992;28;20032;-76
2023/03/07 01:40:50;;;;;;;94.43;37.17;;;;;;;0.80;100.00;99046.81;5051722;28;20045;-75
2023/03/07 01:43:23;;;;;;;89.10;39.33;;;;;;;0.79;100.00;99048.84;5052396;28;20371;-76
2023/03/07 01:45:50;;;;;;;90.45;36.45;;;;;;;0.67;100.00;99060.91;5052003;28;20536;-76
2023/03/07 01:48:17;;;;;;;98.38;39.38;;;;;;;0.55;100.00;99048.50;5052133;28;20029;-75
2023/03/07 01:50:44;;;;;;;95.68;39.00;;;;;;;0.49;100.00;99050.31;5034159;28;20029;-76
2023/03/07 01:53:18;;;;;;;82.38;36.72;;;;;;;0.47;100.00;99054.81;5050824;28;20063;-76
2023/03/07 01:55:52;;;;;;;86.47;36.90;;;;;;;0.44;100.00;99039.66;5052127;28;20036;-77
2023/03/07 01:58:18;;;;;;;85.78;36.60;;;;;;;0.40;100.00;99035.41;5050916;28;20448;-76
2023/03/07 02:00:52;;;;;;;91.80;40.03;;;;;;;0.43;100.00;99037.28;5050637;28;20025;-75
2023/03/07 02:03:29;;;;;;;102.68;40.53;;;;;;;0.43;100.00;99042.91;5051869;28;20029;-76
2023/03/07 02:05:58;;;;;;;110.57;42.72;;;;;;;0.39;100.00;99043.03;5036582;28;20466;-76
2023/03/07 02:08:27;;;;;;;118.47;45.40;;;;;;;0.38;100.00;99044.28;5054283;28;20102;-76
2023/03/07 02:10:55;;;;;;;126.25;45.45;;;;;;;0.37;100.00;99036.31;5037571;28;20032;-76
2023/03/07 02:13:21;;;;;;;120.53;45.22;;;;;;;0.24;100.00;99029.94;5054123;28;20037;-76
2023/03/07 02:15:49;;;;;;;135.27;46.30;;;;;;;0.31;100.00;99043.75;5053905;28;20492;-75
2023/03/07 02:18:17;;;;;;;127.13;47.03;;;;;;;0.26;100.00;99041.53;5037524;28;20483;-76
2023/03/07 02:21:11;;;;;;;140.43;48.53;;;;;;;0.27;100.00;99035.44;5036481;28;20041;-76
2023/03/07 02:24:08;;;;;;;110.95;42.00;;;;;;;0.29;100.00;99035.78;5053951;28;20039;-75
2023/03/07 02:26:39;;;;;;;129.02;44.70;;;;;;;0.30;100.00;99047.78;5053823;28;20032;-75
2023/03/07 02:29:14;;;;;;;115.03;42.13;;;;;;;0.26;100.00;99033.88;5052788;28;20111;-77
2023/03/07 02:31:40;;;;;;;125.75;43.70;;;;;;;0.39;100.00;99043.03;5053420;28;20033;-76
2023/03/07 02:34:24;;;;;;;104.13;39.00;;;;;;;0.40;100.00;99041.81;5054159;28;20029;-75
2023/03/07 02:36:53;;;;;;;95.13;37.97;;;;;;;0.37;100.00;99028.66;5053735;28;20520;-75
2023/03/07 02:39:38;;;;;;;103.82;40.80;;;;;;;0.39;100.00;99029.00;5052499;28;20032;-75
2023/03/07 02:42:08;;;;;;;101.90;40.92;;;;;;;0.33;100.00;99032.81;5052138;28;20053;-75
2023/03/07 02:44:33;;;;;;;95.53;39.45;;;;;;;0.34;100.00;99017.56;5036007;28;20362;-75
2023/03/07 02:47:07;;;;;;;102.82;41.28;;;;;;;0.29;100.00;99016.09;5053755;28;20037;-74
2023/03/07 02:49:35;;;;;;;101.38;39.47;;;;;;;0.29;100.00;99012.50;5053779;28;20036;-76
2023/03/07 02:52:06;;;;;;;111.03;45.17;;;;;;;0.27;100.00;99010.16;5053451;28;20037;-75
2023/03/07 02:54:32;;;;;;;126.32;47.15;;;;;;;0.25;100.00;99018.25;5054274;28;20037;-75
2023/03/07 02:56:58;;;;;;;125.68;46.33;;;;;;;0.18;100.00;99016.47;5054389;28;20032;-76
2023/03/07 02:59:23;;;;;;;127.68;48.25;;;;;;;0.15;100.00;99011.78;5054640;28;20385;-76
2023/03/07 03:01:51;;;;;;;141.38;49.90;;;;;;;0.10;100.00;99005.94;5052764;28;20056;-75
2023/03/07 03:04:16;;;;;;;131.35;50.83;;;;;;;0.03;100.00;99009.78;5054619;28;20351;-76
2023/03/07 03:06:42;;;;;;;134.90;48.38;;;;;;;-0.08;100.00;99000.16;5054509;28;20478;-76
2023/03/07 03:09:09;;;;;;;131.70;46.00;;;;;;;-0.13;100.00;99004.31;5053392;28;20029;-76
2023/03/07 03:11:36;;;;;;;128.20;44.97;;;;;;;-0.22;100.00;99006.25;5053090;28;20021;-77
2023/03/07 03:14:03;;;;;;;132.98;44.50;;;;;;;-0.27;100.00;99001.97;5052911;28;20021;-77
2023/03/07 03:16:32;;;;;;;131.52;46.30;;;;;;;-0.38;100.00;98996.72;5054332;28;20029;-76
2023/03/07 03:18:59;;;;;;;114.13;43.38;;;;;;;-0.51;100.00;98989.53;5053078;28;20450;-75
2023/03/07 03:21:26;;;;;;;99.38;39.25;;;;;;;-0.54;100.00;98996.06;5053138;28;20029;-75
2023/03/07 03:23:52;;;;;;;97.78;39.03;;;;;;;-0.63;100.00;98993.94;5019978;28;20037;-76
2023/03/07 03:26:20;;;;;;;103.38;40.05;;;;;;;-0.71;100.00;98984.94;5054374;28;20535;-75
2023/03/07 03:28:46;;;;;;;91.50;38.80;;;;;;;-0.77;100.00;98981.13;5036126;28;20016;-76
2023/03/07 03:31:15;;;;;;;86.57;35.60;;;;;;;-0.81;100.00;98988.09;5053791;28;20039;-76
2023/03/07 03:33:51;;;;;;;86.55;37.28;;;;;;;-0.85;100.00;98976.97;5053970;28;20108;-76
2023/03/07 03:36:18;;;;;;;94.03;39.92;;;;;;;-0.88;100.00;98980.69;5052904;28;20029;-75
2023/03/07 03:38:45;;;;;;;107.78;40.85;;;;;;;-0.89;100.00;98970.72;5052517;28;20040;-76
2023/03/07 03:41:14;;;;;;;110.13;39.88;;;;;;;-0.87;100.00;98981.47;5053286;28;20050;-76
2023/03/07 03:43:41;;;;;;;90.10;36.10;;;;;;;-0.98;100.00;98970.59;5052354;28;20023;-75
2023/03/07 03:46:07;;;;;;;95.10;37.55;;;;;;;-0.96;100.00;98972.94;5052740;28;20048;-76
2023/03/07 03:48:34;;;;;;;81.43;36.25;;;;;;;-0.99;100.00;98963.41;5053685;28;20555;-76
2023/03/07 03:51:05;;;;;;;88.50;34.92;;;;;;;-1.01;100.00;98971.47;5052222;28;20116;-76
2023/03/07 03:53:33;;;;;;;80.75;35.78;;;;;;;-1.03;100.00;98968.34;5052332;28;20112;-76
2023/03/07 03:56:17;;;;;;;83.40;33.05;;;;;;;-1.05;100.00;98967.22;5035698;28;20473;-77
2023/03/07 03:58:49;;;;;;;74.53;31.25;;;;;;;-1.07;100.00;98964.09;5052189;28;20040;-76
2023/03/07 04:01:16;;;;;;;74.22;32.92;;;;;;;-1.13;100.00;98958.25;5053172;28;20017;-76
2023/03/07 04:03:45;;;;;;;82.60;34.30;;;;;;;-1.17;100.00;98958.38;5053494;28;20036;-76
2023/03/07 04:06:17;;;;;;;85.55;35.40;;;;;;;-1.19;100.00;98951.63;5051843;28;20041;-77
2023/03/07 04:08:43;;;;;;;79.32;33.40;;;;;;;-1.20;100.00;98955.66;5052883;28;20501;-76
2023/03/07 04:11:10;;;;;;;86.00;32.88;;;;;;;-1.30;100.00;98940.72;5052969;28;20032;-75
2023/03/07 04:13:36;;;;;;;79.72;33.60;;;;;;;-1.22;100.00;98952.53;5053524;28;20033;-74
2023/03/07 04:16:03;;;;;;;81.28;35.00;;;;;;;-1.22;100.00;98950.50;5051938;28;20033;-76
2023/03/07 04:18:30;;;;;;;85.70;33.33;;;;;;;-1.22;100.00;98950.50;5053316;28;20032;-75
2023/03/07 04:20:57;;;;;;;78.72;34.78;;;;;;;-1.27;100.00;98942.66;5051788;28;20380;-76
2023/03/07 04:23:37;;;;;;;77.25;32.97;;;;;;;-1.28;100.00;98951.50;5052860;28;20318;-75
2023/03/07 04:26:06;;;;;;;80.93;32.70;;;;;;;-1.27;100.00;98953.88;5053242;28;20068;-76
2023/03/07 04:28:42;;;;;;;83.50;32.78;;;;;;;-1.22;100.00;98950.50;5034821;28;20441;-76
2023/03/07 04:31:16;;;;;;;71.97;31.63;;;;;;;-1.11;100.00;98941.75;5051945;28;20024;-74
2023/03/07 04:34:02;;;;;;;74.20;32.22;;;;;;;-1.08;100.00;98935.28;5053060;28;20025;-75
2023/03/07 04:36:27;;;;;;;75.18;31.17;;;;;;;-1.19;100.00;98907.56;5052649;28;20377;-76
2023/03/07 04:38:52;;;;;;;79.68;31.55;;;;;;;-0.94;100.00;98934.03;5052865;28;20534;-75
2023/03/07 04:41:22;;;;;;;80.68;31.80;;;;;;;-0.81;100.00;98934.81;5052290;28;20049;-76
2023/03/07 04:43:47;;;;;;;74.28;30.58;;;;;;;-0.73;100.00;98936.16;5051444;28;20569;-76
2023/03/07 04:46:14;;;;;;;76.65;31.30;;;;;;;-0.88;100.00;98893.78;5034820;28;20111;-80
2023/03/07 04:48:41;;;;;;;69.22;29.92;;;;;;;-0.62;100.00;98914.19;5034925;28;20458;-80
2023/03/07 04:51:06;;;;;;;70.40;29.08;;;;;;;-0.49;100.00;98922.56;5052990;28;20021;-80
2023/03/07 04:53:33;;;;;;;75.93;30.02;;;;;;;-0.52;100.00;98904.59;5052550;28;20044;-81
2023/03/07 04:56:00;;;;;;;63.78;29.17;;;;;;;-0.35;100.00;98911.63;5034417;28;20167;-80
2023/03/07 04:58:27;;;;;;;68.00;28.85;;;;;;;-0.32;100.00;98916.34;5051483;28;20029;-76
2023/03/07 05:00:55;;;;;;;62.25;25.33;;;;;;;-0.30;100.00;98899.84;5052115;28;20470;-75
2023/03/07 05:03:23;;;;;;;64.50;26.30;;;;;;;-0.79;100.00;98826.59;5051318;28;20399;-77
2023/03/07 05:05:51;;;;;;;64.00;27.13;;;;;;;-0.30;100.00;98899.06;5052462;28;20040;-76
2023/03/07 05:08:25;;;;;;;66.30;28.27;;;;;;;-0.28;100.00;98888.16;5052533;28;20029;-76
2023/03/07 05:10:51;;;;;;;64.38;27.70;;;;;;;-0.27;100.00;98881.28;5052384;28;20458;-76
2023/03/07 05:13:18;;;;;;;59.40;28.33;;;;;;;-0.19;100.00;98887.47;5052509;28;20028;-76
2023/03/07 05:15:49;;;;;;;63.60;27.58;;;;;;;-0.22;100.00;98886.34;5052518;28;20063;-78
2023/03/07 05:18:15;;;;;;;64.53;26.60;;;;;;;-0.21;100.00;98884.31;5034768;28;20021;-79
2023/03/07 05:20:42;;;;;;;68.53;27.90;;;;;;;-0.28;100.00;98888.97;5050664;28;20017;-78
2023/03/07 05:23:07;;;;;;;57.85;25.27;;;;;;;-0.30;100.00;98885.81;5036561;28;20229;-79
2023/03/07 05:25:37;;;;;;;55.13;24.55;;;;;;;-0.29;100.00;98876.16;5031619;28;20112;-79
2023/03/07 05:28:02;;;;;;;56.25;25.50;;;;;;;-0.25;100.00;98873.22;5030966;28;20483;-77
2023/03/07 05:30:28;;;;;;;57.10;26.45;;;;;;;-0.21;100.00;98878.69;5014941;28;20045;-79
2023/03/07 05:32:54;;;;;;;52.05;24.75;;;;;;;-0.20;100.00;98877.47;5032986;28;20028;-80
2023/03/07 05:35:23;;;;;;;52.30;22.85;;;;;;;-0.13;100.00;98874.41;5032603;28;20375;-80
2023/03/07 05:37:49;;;;;;;57.78;25.63;;;;;;;-0.19;100.00;98856.59;5050649;28;20477;-80
2023/03/07 05:40:18;;;;;;;54.28;24.33;;;;;;;-0.18;100.00;98875.78;5034006;28;20104;-81
2023/03/07 05:42:45;;;;;;;54.08;24.98;;;;;;;-0.21;100.00;98875.91;5041203;28;20033;-78
2023/03/07 05:45:11;;;;;;;51.33;24.02;;;;;;;-0.18;100.00;98867.38;5041167;28;20429;-78
2023/03/07 05:47:40;;;;;;;55.97;24.35;;;;;;;-0.19;100.00;98865.78;5043601;28;20024;-77
2023/03/07 05:50:10;;;;;;;54.70;22.50;;;;;;;-0.18;100.00;98858.94;5054565;28;20451;-74
2023/03/07 05:52:35;;;;;;;46.40;20.92;;;;;;;-0.13;100.00;98858.38;5054679;28;20054;-74
2023/03/07 05:55:01;;;;;;;54.63;23.20;;;;;;;0.03;100.00;98852.53;5055479;28;20029;-74
2023/03/07 05:57:28;;;;;;;45.63;22.35;;;;;;;0.27;100.00;98855.66;5055989;28;20370;-76
2023/03/07 05:59:54;;;;;;;41.13;21.88;;;;;;;0.59;100.00;98854.44;5055793;28;20056;-74
2023/03/07 06:02:20;;;;;;;37.65;19.75;;;;;;;0.81;100.00;98852.34;5055584;28;20036;-77
2023/03/07 06:04:47;;;;;;;38.40;20.55;;;;;;;1.07;100.00;98852.13;5055800;28;20109;-79
2023/03/07 06:07:13;;;;;;;40.30;20.17;;;;;;;1.16;100.00;98847.31;5053887;28;20040;-77
2023/03/07 06:09:39;;;;;;;39.20;18.13;;;;;;;1.17;100.00;98837.66;5055501;28;20040;-80
2023/03/07 06:12:08;;;;;;;40.17;18.27;;;;;;;1.26;100.00;98846.09;5054341;28;20029;-80
2023/03/07 06:14:35;;;;;;;40.95;17.92;;;;;;;1.29;100.00;98841.59;5039642;28;20025;-74
2023/03/07 06:17:18;;;;;;;36.03;18.20;;;;;;;1.40;100.00;98836.31;5035124;28;20021;-77
2023/03/07 06:19:44;;;;;;;39.05;18.17;;;;;;;1.39;100.00;98817.84;5034855;28;20040;-79
2023/03/07 06:22:10;;;;;;;37.42;18.70;;;;;;;1.55;100.00;98826.00;5033596;28;20392;-78
2023/03/07 06:24:36;;;;;;;35.35;18.35;;;;;;;1.43;100.00;98795.97;5034185;28;20091;-79
2023/03/07 06:27:01;;;;;;;38.10;18.63;;;;;;;1.70;100.00;98828.97;5034305;28;20027;-77
2023/03/07 06:29:32;;;;;;;36.22;18.55;;;;;;;1.69;100.00;98824.59;5034196;28;20047;-80
2023/03/07 06:31:58;;;;;;;42.53;20.77;;;;;;;1.68;100.00;98832.25;5016365;28;20466;-78
2023/03/07 06:34:26;;;;;;;32.38;17.90;;;;;;;1.70;100.00;98823.34;5033606;28;20033;-75
2023/03/07 06:36:53;;;;;;;36.88;18.90;;;;;;;1.64;100.00;98805.50;5034673;28;20022;-79
2023/03/07 06:39:20;;;;;;;36.55;19.30;;;;;;;1.76;100.00;98819.44;5033287;28;20108;-79
2023/03/07 06:41:49;;;;;;;48.30;20.02;;;;;;;1.80;100.00;98819.25;5033529;28;20037;-80
2023/03/07 06:44:15;;;;;;;36.67;19.48;;;;;;;1.84;100.00;98820.69;5033049;28;20026;-79
2023/03/07 06:46:41;;;;;;;36.75;20.13;;;;;;;1.92;100.00;98819.13;5032659;28;20075;-78
2023/03/07 06:49:06;;;;;;;35.53;20.33;;;;;;;2.05;100.00;98806.88;5032794;28;20114;-78
2023/03/07 06:51:32;;;;;;;40.30;19.95;;;;;;;2.16;100.00;98802.34;5032051;28;20026;-79
2023/03/07 06:53:57;;;;;;;43.20;20.75;;;;;;;2.44;100.00;98807.91;5032420;28;20179;-79
2023/03/07 06:56:24;;;;;;;36.28;20.05;;;;;;;2.63;100.00;98809.41;5031329;28;20025;-79
2023/03/07 06:58:50;;;;;;;43.80;21.05;;;;;;;2.83;100.00;98800.41;5030879;28;20040;-79
2023/03/07 07:01:17;;;;;;;48.50;20.83;;;;;;;3.00;100.00;98798.75;5016463;28;20088;-79
2023/03/07 07:03:43;;;;;;;47.95;21.08;;;;;;;3.25;100.00;98789.03;5000296;28;20300;-81
2023/03/07 07:06:08;;;;;;;42.13;20.10;;;;;;;3.27;100.00;98776.03;5034252;28;20024;-79
2023/03/07 07:08:33;;;;;;;38.22;20.50;;;;;;;3.44;100.00;98794.06;5034450;28;20108;-79
2023/03/07 07:10:59;;;;;;;35.50;18.40;;;;;;;3.93;100.00;98778.66;5033213;28;20022;-79
2023/03/07 07:13:24;;;;;;;30.42;16.67;;;;;;;5.72;100.00;98782.97;5034442;28;20097;-80
2023/03/07 07:15:49;;;;;;;33.78;17.88;;;;;;;7.89;100.00;98761.94;5033075;28;20052;-79
2023/03/07 07:18:15;;;;;;;33.63;16.73;;;;;;;9.83;100.00;98763.94;5032981;28;20032;-80
2023/03/07 07:20:40;;;;;;;29.10;16.38;;;;;;;11.29;99.49;98770.13;5034468;28;20018;-79
2023/03/07 07:23:06;;;;;;;27.77;16.95;;;;;;;12.28;87.93;98773.09;5032791;28;20398;-79
2023/03/07 07:25:31;;;;;;;33.28;17.98;;;;;;;12.79;75.89;98782.50;5034052;28;20377;-78
2023/03/07 07:27:58;;;;;;;33.15;18.52;;;;;;;13.17;68.46;98773.78;5032590;28;20025;-79
2023/03/07 07:30:24;;;;;;;30.98;17.98;;;;;;;13.52;62.32;98800.03;5033094;28;20470;-78
2023/03/07 07:32:52;;;;;;;29.50;16.75;;;;;;;13.93;61.17;98795.84;5034013;28;20044;-78
2023/03/07 07:35:17;;;;;;;29.92;16.50;;;;;;;14.78;57.54;98793.44;5034231;28;20064;-78
2023/03/07 07:37:43;;;;;;;30.13;17.63;;;;;;;15.32;51.54;98800.50;5034222;28;20060;-78
2023/03/07 07:40:10;;;;;;;29.33;17.40;;;;;;;15.70;49.07;98798.72;5034134;28;20029;-78
2023/03/07 07:42:35;;;;;;;23.90;15.15;;;;;;;16.41;46.82;98800.03;5031241;28;20038;-78
2023/03/07 07:45:00;;;;;;;26.67;17.08;;;;;;;16.48;44.64;98796.44;5038690;28;20024;-78
2023/03/07 07:47:27;;;;;;;30.25;17.35;;;;;;;16.68;44.62;98789.78;5034496;28;20033;-77
2023/03/07 07:49:53;;;;;;;28.20;16.55;;;;;;;17.41;43.72;98782.38;5052467;28;20052;-75
2023/03/07 07:52:26;;;;;;;26.83;16.95;;;;;;;17.66;40.33;98783.34;5052463;28;20067;-77
2023/03/07 07:54:52;;;;;;;24.35;16.00;;;;;;;17.90;40.69;98776.19;5052330;28;20620;-76
2023/03/07 07:57:17;;;;;;;23.80;15.93;;;;;;;17.91;39.12;98776.97;5052014;28;20025;-77
2023/03/07 07:59:44;;;;;;;23.50;15.50;;;;;;;17.86;38.73;98749.03;5053567;28;20382;-76
2023/03/07 08:02:12;;;;;;;22.92;16.33;;;;;;;18.35;38.94;98760.84;5052816;28;20079;-76
2023/03/07 08:04:52;;;;;;;22.20;14.90;;;;;;;18.86;37.13;98753.81;5052268;28;20163;-76
2023/03/07 08:07:18;;;;;;;23.10;15.32;;;;;;;19.17;36.11;98751.47;5053166;28;20111;-77
2023/03/07 08:09:44;;;;;;;21.38;14.90;;;;;;;19.57;35.38;98743.41;5053453;28;20033;-78
2023/03/07 08:12:11;;;;;;;24.10;14.70;;;;;;;19.61;34.63;98746.66;5051614;28;20154;-77
2023/03/07 08:14:39;;;;;;;24.30;15.57;;;;;;;19.90;33.68;98744.06;5052081;28;20048;-78
2023/03/07 08:17:04;;;;;;;23.80;15.68;;;;;;;19.70;33.46;98742.34;5051669;28;20044;-78
2023/03/07 08:19:45;;;;;;;24.35;15.25;;;;;;;19.44;34.22;98743.75;5052774;28;20037;-78
2023/03/07 08:22:10;;;;;;;22.17;14.75;;;;;;;19.26;34.17;98721.88;5052937;28;20021;-78
2023/03/07 08:24:36;;;;;;;22.52;14.27;;;;;;;19.25;34.79;98731.94;5051973;28;20131;-79
2023/03/07 08:27:03;;;;;;;23.77;14.00;;;;;;;19.73;33.26;98726.66;5052681;28;20104;-78
2023/03/07 08:29:31;;;;;;;19.10;13.18;;;;;;;19.71;32.33;98727.22;5051565;28;20505;-77
2023/03/07 08:31:57;;;;;;;22.88;13.90;;;;;;;19.91;32.80;98725.28;5053152;28;20051;-77
2023/03/07 08:34:23;;;;;;;23.80;13.68;;;;;;;19.51;32.83;98717.56;5051695;28;20056;-80
2023/03/07 08:36:49;;;;;;;20.20;12.38;;;;;;;19.02;33.97;98724.16;5053287;28;20096;-79
2023/03/07 08:39:15;;;;;;;20.45;11.90;;;;;;;18.77;32.89;98713.94;5052833;28;20437;-78
2023/03/07 08:41:40;;;;;;;17.52;12.57;;;;;;;17.50;33.25;98708.84;5052488;28;20045;-80
2023/03/07 08:44:06;;;;;;;16.73;11.52;;;;;;;16.41;35.75;98725.06;5053115;28;20028;-80
2023/03/07 08:46:33;;;;;;;18.13;11.80;;;;;;;16.17;36.33;98723.47;5051665;28;20094;-77
2023/03/07 08:48:59;;;;;;;16.10;11.43;;;;;;;15.93;36.93;98727.59;5052715;28;20045;-76
2023/03/07 08:51:25;;;;;;;19.33;11.15;;;;;;;15.96;37.56;98725.66;5052829;28;20137;-77
2023/03/07 08:53:53;;;;;;;21.45;12.52;;;;;;;15.67;37.14;98731.47;5053113;28;20476;-77
2023/03/07 08:56:21;;;;;;;15.60;9.90;;;;;;;15.51;37.17;98734.81;5052313;28;20062;-75
2023/03/07 08:58:52;;;;;;;16.25;10.40;;;;;;;15.28;37.32;98726.78;5052874;28;20355;-74
2023/03/07 09:01:18;;;;;;;15.43;9.38;;;;;;;14.89;37.51;98732.78;5034635;28;20464;-75
2023/03/07 09:03:46;;;;;;;16.42;10.07;;;;;;;14.76;37.94;98716.38;5050693;28;20508;-75
2023/03/07 09:06:20;;;;;;;18.63;10.82;;;;;;;14.87;39.68;98714.56;5052324;28;20068;-75
2023/03/07 09:08:47;;;;;;;17.60;10.05;;;;;;;14.93;39.41;98715.16;5052388;28;20331;-75
2023/03/07 09:11:15;;;;;;;15.77;9.63;;;;;;;14.59;39.27;98703.75;5051024;28;20039;-76
2023/03/07 09:13:40;;;;;;;20.67;11.30;;;;;;;13.70;40.18;98697.91;5052794;28;20045;-75
2023/03/07 09:16:07;;;;;;;17.35;10.73;;;;;;;13.33;41.02;98698.13;5055240;28;20500;-78
2023/03/07 09:18:35;;;;;;;20.77;11.02;;;;;;;12.72;41.60;98707.84;5056323;28;20090;-75
2023/03/07 09:21:04;;;;;;;19.02;10.63;;;;;;;11.98;43.16;98703.75;5055409;28;20021;-76
2023/03/07 09:23:32;;;;;;;19.17;10.77;;;;;;;11.39;46.67;98714.13;5054847;28;20033;-76
2023/03/07 09:25:59;;;;;;;19.30;9.98;;;;;;;11.10;47.95;98692.84;5055027;28;20037;-77
2023/03/07 09:28:25;;;;;;;16.13;10.20;;;;;;;11.38;49.46;98718.28;5054959;28;20063;-77
2023/03/07 09:30:51;;;;;;;15.10;10.15;;;;;;;11.59;48.67;98707.91;5054827;28;20061;-77
2023/03/07 09:33:18;;;;;;;17.05;11.02;;;;;;;11.54;48.46;98687.94;5054597;28;20032;-78
2023/03/07 09:35:44;;;;;;;17.50;10.23;;;;;;;11.87;49.11;98704.69;5055907;28;20029;-76
2023/03/07 09:38:10;;;;;;;13.45;8.82;;;;;;;12.05;48.08;98691.69;5055180;28;20564;-77
2023/03/07 09:40:38;;;;;;;15.50;9.27;;;;;;;11.97;47.82;98699.34;5056064;28;20041;-76
2023/03/07 09:43:22;;;;;;;15.52;10.00;;;;;;;11.68;47.06;98698.16;5055694;28;20036;-77
2023/03/07 09:46:08;;;;;;;15.32;9.50;;;;;;;11.15;47.60;98697.78;5038086;28;20028;-78
2023/03/07 09:49:10;;;;;;;16.33;10.13;;;;;;;10.63;50.96;98695.13;5037876;28;20021;-77
2023/03/07 09:51:41;;;;;;;16.55;9.20;;;;;;;10.50;53.03;98695.75;5052218;28;20029;-75
2023/03/07 09:54:20;;;;;;;15.32;9.02;;;;;;;10.70;53.84;98693.78;5054667;28;20368;-75
2023/03/07 09:56:56;;;;;;;11.13;7.40;;;;;;;10.96;51.28;98691.19;5055628;28;20083;-76
2023/03/07 09:59:49;;;;;;;15.15;8.93;;;;;;;10.77;51.19;98676.84;5054382;28;20020;-75
2023/03/07 10:02:27;;;;;;;15.15;8.90;;;;;;;10.68;53.02;98677.16;5051929;28;20032;-75
2023/03/07 10:05:26;;;;;;;14.20;8.82;;;;;;;10.62;56.12;98685.03;5054145;28;20033;-75
2023/03/07 10:07:52;;;;;;;15.23;9.93;;;;;;;10.37;56.38;98641.38;5055636;28;20479;-76
2023/03/07 10:10:47;;;;;;;14.80;9.52;;;;;;;10.59;55.32;98674.66;5054426;28;20059;-75
2023/03/07 10:13:31;;;;;;;16.95;9.35;;;;;;;10.64;55.88;98670.19;5055178;28;20044;-76
2023/03/07 10:16:20;;;;;;;14.57;8.93;;;;;;;10.52;53.86;98675.25;5055619;28;20128;-75
2023/03/07 10:19:04;;;;;;;16.13;9.18;;;;;;;10.41;54.67;98666.78;5054132;28;20060;-75
2023/03/07 10:21:39;;;;;;;18.42;9.13;;;;;;;10.41;55.83;98664.69;5055374;28;20031;-76
2023/03/07 10:24:11;;;;;;;19.67;10.00;;;;;;;10.33;54.87;98669.44;5054029;28;20478;-75
2023/03/07 10:26:40;;;;;;;14.38;9.07;;;;;;;10.03;55.04;98666.56;5052837;28;20044;-74
2023/03/07 10:29:40;;;;;;;17.63;9.45;;;;;;;9.61;57.82;98667.78;5054832;28;20028;-74
2023/03/07 10:32:32;;;;;;;18.65;9.13;;;;;;;9.53;60.94;98666.03;5053223;28;20017;-75
2023/03/07 10:35:11;;;;;;;15.35;8.30;;;;;;;9.50;62.21;98655.66;5053605;28;20028;-77
2023/03/07 10:37:51;;;;;;;16.25;9.20;;;;;;;9.42;62.41;98654.69;5055203;28;20033;-75
2023/03/07 10:40:44;;;;;;;13.38;8.30;;;;;;;9.46;62.65;98653.09;5054794;28;20035;-79
2023/03/07 10:43:23;;;;;;;14.52;8.20;;;;;;;9.48;64.09;98659.06;5054719;28;20371;-77
2023/03/07 10:45:51;;;;;;;14.70;9.27;;;;;;;9.60;63.26;98642.66;5053596;28;20055;-78
2023/03/07 10:48:19;;;;;;;13.15;8.60;;;;;;;9.44;62.47;98637.84;5036874;28;20496;-77
2023/03/07 10:51:02;;;;;;;13.13;8.88;;;;;;;9.46;65.53;98640.91;5053517;28;20505;-78
2023/03/07 10:53:39;;;;;;;13.20;8.73;;;;;;;9.46;65.14;98626.66;5053308;28;20025;-78
2023/03/07 10:56:15;;;;;;;16.70;8.32;;;;;;;9.44;66.89;98632.13;5036688;28;20064;-77
2023/03/07 10:59:13;;;;;;;12.18;7.60;;;;;;;9.40;63.66;98632.38;5053131;28;20056;-77
2023/03/07 11:02:00;;;;;;;14.40;8.15;;;;;;;9.08;64.55;98626.31;5054531;28;20028;-76
2023/03/07 11:04:28;;;;;;;13.68;6.80;;;;;;;8.94;67.79;98615.25;5054292;28;20470;-77
2023/03/07 11:06:56;;;;;;;13.82;8.20;;;;;;;8.69;68.66;98606.53;5054225;28;20031;-76
2023/03/07 11:09:28;;;;;;;12.93;7.30;;;;;;;8.56;69.29;98611.22;5052968;28;20024;-76
2023/03/07 11:12:12;;;;;;;15.10;7.80;;;;;;;8.39;72.48;98605.53;5052063;28;20462;-77
2023/03/07 11:14:51;;;;;;;12.75;7.72;;;;;;;8.44;72.74;98613.28;5054460;28;20033;-75
2023/03/07 11:17:30;;;;;;;12.00;7.35;;;;;;;8.43;71.60;98605.25;5054387;28;20079;-75
2023/03/07 11:19:56;;;;;;;15.93;8.15;;;;;;;8.39;72.07;98597.78;5054101;28;20025;-77
2023/03/07 11:22:33;;;;;;;12.40;8.13;;;;;;;8.44;72.92;98606.81;5053141;28;20033;-77
2023/03/07 11:25:12;;;;;;;13.55;7.22;;;;;;;8.37;71.92;98596.72;5036566;28;20112;-75
2023/03/07 11:27:48;;;;;;;10.57;6.72;;;;;;;8.33;71.75;98579.16;5054360;28;20086;-78
2023/03/07 11:30:41;;;;;;;19.10;8.07;;;;;;;8.28;74.10;98600.63;5052710;28;20033;-77